Time;durP1;ratioP1;P1;durP2;ratioP2;P2;SDS_P1;SDS_P2;PMS_P1;PMS_P2;Temp;Humidity;BMP_temperature;BMP_pressure;BME280_temperature;BME280_humidity;BME280_pressure;Samples;Min_cycle;Max_cycle;Signal;HPM_P1;HPM_P2
2023/01/03 00:01:57;;;;;;;0.70;0.70;;;9.10;99.90;;;;;;5004889;28;20061;-60
2023/01/03 00:04:23;;;;;;;1.05;0.80;;;9.10;99.90;;;;;;5011293;28;20433;-59
2023/01/03 00:06:50;;;;;;;0.63;0.63;;;9.00;99.90;;;;;;5008205;28;20022;-59
2023/01/03 00:09:20;;;;;;;0.68;0.68;;;9.00;99.90;;;;;;5011956;28;20660;-59
2023/01/03 00:14:34;;;;;;;0.70;0.60;;;9.00;99.90;;;;;;5008231;28;20029;-59
2023/01/03 00:17:02;;;;;;;0.90;0.90;;;9.00;99.90;;;;;;5011455;28;20565;-59
2023/01/03 00:19:32;;;;;;;0.60;0.60;;;9.10;99.90;;;;;;5010168;28;20507;-58
2023/01/03 00:21:58;;;;;;;0.77;0.60;;;9.10;99.90;;;;;;5009342;28;20029;-58
2023/01/03 00:24:23;;;;;;;0.80;0.73;;;9.10;99.90;;;;;;5010247;28;20038;-60
2023/01/03 00:26:50;;;;;;;1.30;0.63;;;9.10;99.90;;;;;;5013877;28;20077;-58
2023/01/03 00:29:16;;;;;;;1.48;0.73;;;9.10;99.90;;;;;;5010510;28;20609;-60
2023/01/03 00:31:42;;;;;;;0.70;0.70;;;9.10;99.90;;;;;;5013281;28;20027;-59
2023/01/03 00:34:08;;;;;;;1.77;0.60;;;9.10;99.90;;;;;;5012807;28;20045;-60
2023/01/03 00:36:35;;;;;;;2.25;0.80;;;9.10;99.90;;;;;;5001395;28;20530;-59
2023/01/03 00:39:01;;;;;;;0.50;0.50;;;9.10;99.90;;;;;;5012926;28;20031;-59
2023/01/03 00:41:27;;;;;;;0.98;0.70;;;9.10;99.90;;;;;;5012220;28;20026;-60
2023/01/03 00:43:53;;;;;;;0.60;0.60;;;9.10;99.90;;;;;;5008426;28;20034;-58
2023/01/03 00:46:19;;;;;;;0.70;0.70;;;9.10;99.90;;;;;;5016688;28;20236;-58
2023/01/03 00:48:45;;;;;;;0.80;0.70;;;9.10;99.90;;;;;;5011384;28;20017;-61
2023/01/03 00:51:14;;;;;;;0.70;0.70;;;9.10;99.90;;;;;;5008149;28;20519;-61
2023/01/03 00:53:42;;;;;;;0.60;0.60;;;9.10;99.90;;;;;;5002860;28;20022;-58
2023/01/03 00:56:11;;;;;;;0.73;0.73;;;9.00;99.90;;;;;;5018320;28;20040;-59
2023/01/03 00:58:38;;;;;;;0.82;0.80;;;9.00;99.90;;;;;;5008638;28;20030;-60
2023/01/03 01:01:16;;;;;;;1.17;1.08;;;8.90;99.90;;;;;;5013333;28;20033;-61
2023/01/03 01:03:45;;;;;;;0.75;0.73;;;8.90;99.90;;;;;;5013740;28;20070;-59
2023/01/03 01:06:17;;;;;;;1.08;0.77;;;8.80;99.90;;;;;;5009096;28;21019;-60
2023/01/03 01:08:44;;;;;;;2.15;1.33;;;8.70;99.90;;;;;;5012702;28;20517;-58
2023/01/03 01:11:10;;;;;;;0.70;0.70;;;8.60;99.90;;;;;;5013268;28;20116;-59
2023/01/03 01:13:36;;;;;;;0.93;0.77;;;8.50;99.90;;;;;;5003489;28;20074;-57
2023/01/03 01:16:08;;;;;;;0.68;0.68;;;8.40;99.90;;;;;;5007186;28;20027;-59
2023/01/03 01:18:35;;;;;;;2.00;1.42;;;8.30;99.90;;;;;;5028589;28;20034;-60
2023/01/03 01:21:10;;;;;;;1.00;0.90;;;8.20;99.90;;;;;;5007318;28;20400;-58
2023/01/03 01:23:37;;;;;;;0.90;0.80;;;8.20;99.90;;;;;;5008566;28;20144;-59
2023/01/03 01:26:04;;;;;;;0.70;0.70;;;8.10;99.90;;;;;;5006305;28;20049;-60
2023/01/03 01:28:30;;;;;;;0.82;0.80;;;8.00;99.90;;;;;;5010182;28;20072;-58
2023/01/03 01:31:01;;;;;;;0.80;0.80;;;7.90;99.90;;;;;;5011071;28;20044;-58
2023/01/03 01:33:27;;;;;;;1.33;1.10;;;7.80;99.90;;;;;;5009437;28;20033;-58
2023/01/03 01:35:53;;;;;;;1.30;1.00;;;7.70;99.90;;;;;;5016714;28;20033;-59
2023/01/03 01:38:19;;;;;;;1.10;1.00;;;7.60;99.90;;;;;;5009458;28;20155;-59
2023/01/03 01:40:45;;;;;;;1.20;1.10;;;7.50;99.90;;;;;;5006104;28;20121;-60
2023/01/03 01:46:26;;;;;;;4.50;2.97;;;7.40;99.90;;;;;;5010599;28;20392;-59
2023/01/03 01:48:58;;;;;;;1.35;1.10;;;7.30;99.90;;;;;;5003382;28;20081;-60
2023/01/03 01:51:27;;;;;;;1.40;1.00;;;7.30;99.90;;;;;;5008671;28;20030;-60
2023/01/03 01:53:54;;;;;;;0.75;0.70;;;7.20;99.90;;;;;;5013282;28;20037;-59
2023/01/03 01:56:25;;;;;;;0.80;0.80;;;7.20;99.90;;;;;;5010534;28;20497;-58
2023/01/03 01:58:51;;;;;;;;;;;7.10;99.90;;;;;;5009496;28;20113;-58
2023/01/03 02:01:19;;;;;;;1.15;0.80;;;7.10;99.90;;;;;;5017668;28;19947;-59
2023/01/03 02:03:54;;;;;;;1.05;0.82;;;7.10;99.90;;;;;;5016244;28;20042;-58
2023/01/03 02:06:20;;;;;;;1.15;0.85;;;7.20;99.90;;;;;;5015144;28;20038;-58
2023/01/03 02:08:46;;;;;;;1.10;0.82;;;7.30;99.90;;;;;;5014350;28;20045;-58
2023/01/03 02:11:36;;;;;;;1.08;0.80;;;7.40;99.90;;;;;;5012510;28;20025;-59
2023/01/03 02:14:04;;;;;;;1.23;0.80;;;7.50;99.90;;;;;;5012215;28;20034;-58
2023/01/03 02:16:39;;;;;;;1.10;0.90;;;7.50;99.90;;;;;;5011504;28;20445;-58
2023/01/03 02:19:17;;;;;;;3.60;1.70;;;7.50;99.90;;;;;;5011537;28;20025;-58
2023/01/03 02:22:15;;;;;;;1.70;1.23;;;7.40;99.90;;;;;;5000642;28;20029;-59
2023/01/03 02:25:05;;;;;;;1.02;0.80;;;7.40;99.90;;;;;;5014811;28;20126;-60
2023/01/03 02:28:14;;;;;;;1.40;1.00;;;7.30;99.90;;;;;;5012056;28;20042;-58
2023/01/03 02:30:49;;;;;;;1.20;0.93;;;7.20;99.90;;;;;;5011138;28;20093;-59
2023/01/03 02:33:18;;;;;;;1.52;0.90;;;7.20;99.90;;;;;;5013847;28;20034;-59
2023/01/03 02:36:05;;;;;;;0.80;0.80;;;7.10;99.90;;;;;;5012524;28;20116;-59
2023/01/03 02:38:48;;;;;;;0.60;0.60;;;7.10;99.90;;;;;;5014873;28;20030;-59
2023/01/03 02:41:31;;;;;;;1.63;1.00;;;7.10;99.90;;;;;;5012759;28;20045;-58
2023/01/03 02:44:26;;;;;;;1.08;0.80;;;7.10;99.90;;;;;;5014713;28;20023;-60
2023/01/03 02:46:58;;;;;;;0.90;0.68;;;7.20;99.90;;;;;;5008295;28;20117;-58
2023/01/03 02:49:41;;;;;;;1.15;1.10;;;7.10;99.90;;;;;;5004350;28;20093;-60
2023/01/03 02:52:15;;;;;;;1.38;0.95;;;7.20;99.90;;;;;;5005210;28;20026;-59
2023/01/03 02:55:05;;;;;;;1.20;0.80;;;7.10;99.90;;;;;;5009577;28;20165;-59
2023/01/03 02:57:53;;;;;;;0.80;0.80;;;7.10;99.90;;;;;;5010137;28;20064;-58
2023/01/03 03:00:24;;;;;;;2.75;1.00;;;7.10;99.90;;;;;;5011812;28;20169;-58
2023/01/03 03:02:56;;;;;;;1.27;1.10;;;7.00;99.90;;;;;;5008813;28;20033;-58
2023/01/03 03:05:31;;;;;;;8.73;0.93;;;7.00;99.90;;;;;;5011219;28;20030;-57
2023/01/03 03:07:56;;;;;;;1.48;1.00;;;7.00;99.90;;;;;;5010734;28;20124;-60
2023/01/03 03:13:33;;;;;;;1.15;0.90;;;7.10;99.90;;;;;;5011136;28;20499;-58
2023/01/03 03:16:11;;;;;;;1.20;1.08;;;7.20;99.90;;;;;;5011047;28;20124;-58
2023/01/03 03:18:39;;;;;;;1.23;0.90;;;7.30;99.90;;;;;;5002182;28;20089;-59
2023/01/03 03:26:43;;;;;;;1.73;1.00;;;7.50;99.90;;;;;;5012805;28;20096;-61
2023/01/03 03:29:17;;;;;;;0.80;0.70;;;7.50;99.90;;;;;;5011277;28;20041;-60
2023/01/03 03:31:47;;;;;;;4.30;0.88;;;7.50;99.90;;;;;;5013762;28;20025;-58
2023/01/03 03:34:13;;;;;;;2.30;0.90;;;7.60;99.90;;;;;;5015560;28;20569;-61
2023/01/03 03:37:04;;;;;;;1.17;1.08;;;7.60;99.90;;;;;;5013108;28;20109;-61
2023/01/03 03:45:25;;;;;;;1.20;0.70;;;7.60;99.90;;;;;;5009205;28;20041;-58
2023/01/03 03:48:03;;;;;;;2.08;0.90;;;7.60;99.90;;;;;;5013489;28;20038;-60
2023/01/03 03:50:51;;;;;;;1.20;0.80;;;7.60;99.90;;;;;;5011445;28;20026;-58
2023/01/03 03:53:22;;;;;;;1.13;1.00;;;7.60;99.90;;;;;;5015194;28;20038;-61
2023/01/03 03:55:59;;;;;;;1.50;1.10;;;7.50;99.90;;;;;;5013670;28;20054;-59
2023/01/03 03:58:42;;;;;;;1.50;1.05;;;7.40;99.90;;;;;;5006885;28;20060;-59
2023/01/03 04:01:12;;;;;;;1.63;1.15;;;7.30;99.90;;;;;;5011614;28;20478;-59
2023/01/03 04:03:39;;;;;;;1.50;1.20;;;7.30;99.90;;;;;;5011166;28;20034;-58
2023/01/03 04:06:12;;;;;;;2.13;1.27;;;7.30;99.90;;;;;;5008218;28;20092;-58
2023/01/03 04:08:38;;;;;;;2.15;1.00;;;7.20;99.90;;;;;;5001791;28;20516;-61
2023/01/03 04:11:04;;;;;;;1.30;1.20;;;7.20;99.90;;;;;;5025635;28;20117;-60
2023/01/03 04:13:34;;;;;;;1.20;1.10;;;7.20;99.90;;;;;;5012526;28;20057;-59
2023/01/03 04:16:00;;;;;;;1.10;1.00;;;7.10;99.90;;;;;;5012547;28;20026;-58
2023/01/03 04:18:26;;;;;;;1.67;1.10;;;7.10;99.90;;;;;;5010020;28;20117;-59
2023/01/03 04:20:51;;;;;;;1.50;1.17;;;7.10;99.90;;;;;;5011288;28;20022;-59
2023/01/03 04:23:17;;;;;;;2.17;1.17;;;7.10;99.90;;;;;;5009961;28;20406;-61
2023/01/03 04:25:43;;;;;;;3.03;1.20;;;7.00;99.90;;;;;;5012548;28;20129;-58
2023/01/03 04:28:08;;;;;;;2.95;1.60;;;7.00;99.90;;;;;;5014537;28;20032;-58
2023/01/03 04:30:34;;;;;;;2.55;1.63;;;7.00;99.90;;;;;;5013357;28;20032;-60
2023/01/03 04:33:03;;;;;;;2.92;1.58;;;7.00;99.90;;;;;;5010061;28;20026;-59
2023/01/03 04:35:30;;;;;;;1.38;1.27;;;7.00;99.90;;;;;;5005636;28;20034;-60
2023/01/03 04:37:56;;;;;;;1.40;1.30;;;7.00;99.90;;;;;;5003604;28;20030;-59
2023/01/03 04:40:21;;;;;;;1.02;0.93;;;7.00;99.90;;;;;;5015141;28;20045;-58
2023/01/03 04:45:31;;;;;;;1.50;1.00;;;7.00;99.90;;;;;;5015099;28;20037;-59
2023/01/03 04:47:56;;;;;;;1.20;1.10;;;7.00;99.90;;;;;;5010303;28;20026;-58
2023/01/03 04:50:22;;;;;;;2.55;1.08;;;7.00;99.90;;;;;;5012295;28;20066;-60
2023/01/03 04:52:48;;;;;;;1.20;1.10;;;6.90;99.90;;;;;;5008025;28;20110;-58
2023/01/03 04:55:13;;;;;;;1.00;0.90;;;6.90;99.90;;;;;;5015463;28;20076;-61
2023/01/03 04:57:39;;;;;;;1.20;1.10;;;6.80;99.90;;;;;;5016631;28;20145;-60
2023/01/03 05:00:05;;;;;;;1.10;1.00;;;6.80;99.90;;;;;;5013837;28;20036;-59
2023/01/03 05:02:31;;;;;;;1.67;0.90;;;6.80;99.90;;;;;;5010321;28;20146;-60
2023/01/03 05:04:56;;;;;;;1.30;1.20;;;6.70;99.90;;;;;;5013898;28;20490;-60
2023/01/03 05:07:22;;;;;;;1.98;1.20;;;6.50;99.90;;;;;;5014184;28;20030;-60
2023/01/03 05:09:47;;;;;;;1.55;1.20;;;6.40;99.90;;;;;;5013745;28;20045;-59
2023/01/03 05:12:13;;;;;;;1.45;1.25;;;6.20;99.90;;;;;;5005785;28;20066;-59
2023/01/03 05:14:42;;;;;;;1.60;1.50;;;6.10;99.90;;;;;;5006819;28;20121;-58
2023/01/03 05:17:08;;;;;;;2.90;2.60;;;6.00;99.90;;;;;;5010251;28;20034;-61
2023/01/03 05:19:33;;;;;;;3.17;2.88;;;5.80;99.90;;;;;;5008649;28;20678;-57
2023/01/03 05:27:27;;;;;;;24.95;17.55;;;5.60;99.90;;;;;;5008661;28;20409;-61
2023/01/03 05:29:55;;;;;;;11.82;10.63;;;5.50;99.90;;;;;;5016612;28;20026;-60
2023/01/03 05:32:22;;;;;;;3.15;2.85;;;5.40;99.90;;;;;;5013596;28;20033;-61
2023/01/03 05:34:48;;;;;;;3.58;2.20;;;5.40;99.90;;;;;;5013381;28;20049;-61
2023/01/03 05:37:13;;;;;;;3.50;2.10;;;5.30;99.90;;;;;;5015265;28;20084;-60
2023/01/03 05:39:39;;;;;;;3.78;2.22;;;5.20;99.90;;;;;;5009014;28;20488;-60
2023/01/03 05:42:05;;;;;;;3.00;2.33;;;5.10;99.90;;;;;;5004372;28;20042;-60
2023/01/03 05:44:32;;;;;;;3.15;2.13;;;5.10;99.90;;;;;;5008133;28;20033;-60
2023/01/03 05:47:00;;;;;;;2.40;2.10;;;5.10;99.90;;;;;;5004552;28;20022;-59
2023/01/03 05:49:26;;;;;;;3.40;2.22;;;5.10;99.90;;;;;;5005992;28;20029;-61
2023/01/03 05:51:51;;;;;;;2.50;2.22;;;5.10;99.90;;;;;;5008039;28;20014;-60
2023/01/03 05:54:18;;;;;;;2.70;2.47;;;5.10;99.90;;;;;;5013197;28;20034;-60
2023/01/03 05:56:44;;;;;;;3.97;3.58;;;5.20;99.90;;;;;;5010567;28;20022;-60
2023/01/03 05:59:10;;;;;;;4.95;3.30;;;5.20;99.90;;;;;;5009641;28;20075;-59
2023/01/03 06:01:36;;;;;;;3.22;2.92;;;5.20;99.90;;;;;;5012699;28;20033;-60
2023/01/03 06:04:02;;;;;;;3.78;3.22;;;5.20;99.90;;;;;;5004108;28;20026;-60
2023/01/03 06:06:28;;;;;;;2.90;2.70;;;5.30;99.90;;;;;;5009984;28;20509;-59
2023/01/03 06:08:53;;;;;;;3.40;2.78;;;5.40;99.90;;;;;;5015512;28;20757;-60
2023/01/03 06:11:19;;;;;;;2.78;2.58;;;5.40;99.90;;;;;;5017845;28;20526;-60
2023/01/03 06:13:45;;;;;;;3.50;3.20;;;5.50;99.90;;;;;;5012581;28;20581;-60
2023/01/03 06:19:00;;;;;;;4.53;3.08;;;5.60;99.90;;;;;;5002886;28;20413;-59
2023/01/03 06:21:26;;;;;;;2.58;2.38;;;5.60;99.90;;;;;;5010927;28;20562;-59
2023/01/03 06:23:52;;;;;;;2.30;2.10;;;5.60;99.90;;;;;;5010327;28;20042;-59
2023/01/03 06:26:22;;;;;;;2.92;2.50;;;5.60;99.90;;;;;;5010546;28;20026;-58
2023/01/03 06:28:48;;;;;;;3.30;2.60;;;5.60;99.90;;;;;;5013241;28;20029;-59
2023/01/03 06:31:14;;;;;;;2.97;2.08;;;5.50;99.90;;;;;;5012900;28;20220;-59
2023/01/03 06:33:40;;;;;;;2.70;2.50;;;5.50;99.90;;;;;;5009291;28;20494;-59
2023/01/03 06:36:09;;;;;;;2.20;1.70;;;5.40;99.90;;;;;;5011775;28;20041;-59
2023/01/03 06:38:35;;;;;;;2.13;1.80;;;5.30;99.90;;;;;;5008163;28;20630;-59
2023/01/03 06:41:01;;;;;;;3.50;1.63;;;5.20;99.90;;;;;;5010012;28;20050;-58
2023/01/03 06:43:27;;;;;;;2.80;1.73;;;5.10;99.90;;;;;;5016268;28;20401;-59
2023/01/03 06:54:12;;;;;;;2.15;1.95;;;4.80;99.90;;;;;;5014845;28;20029;-59
2023/01/03 06:56:38;;;;;;;2.80;2.28;;;4.80;99.90;;;;;;5010308;28;20061;-61
2023/01/03 06:59:03;;;;;;;2.92;2.63;;;4.90;99.90;;;;;;5010427;28;20058;-62
2023/01/03 07:01:29;;;;;;;4.53;3.38;;;5.00;99.90;;;;;;5009014;28;20402;-61
2023/01/03 07:03:55;;;;;;;2.65;2.45;;;5.00;99.90;;;;;;5016167;28;20026;-59
2023/01/03 07:06:20;;;;;;;2.47;2.03;;;5.10;99.90;;;;;;5013227;28;20075;-61
2023/01/03 07:08:46;;;;;;;3.60;3.00;;;5.20;99.90;;;;;;5013921;28;20116;-61
2023/01/03 07:11:11;;;;;;;3.08;2.50;;;5.30;99.90;;;;;;5014484;28;20034;-59
2023/01/03 07:16:21;;;;;;;4.68;3.08;;;5.30;99.90;;;;;;5019430;28;20160;-59
2023/01/03 07:18:48;;;;;;;3.13;2.85;;;5.40;99.90;;;;;;5017502;28;20105;-60
2023/01/03 07:21:14;;;;;;;5.80;3.42;;;5.40;99.90;;;;;;5019166;28;20034;-61
2023/01/03 07:23:40;;;;;;;5.70;3.20;;;5.40;99.90;;;;;;5010889;28;20030;-59
2023/01/03 07:26:06;;;;;;;5.88;3.00;;;5.40;99.90;;;;;;5015333;28;20099;-59
2023/01/03 07:28:31;;;;;;;4.30;3.50;;;5.50;99.90;;;;;;5019642;28;20396;-61
2023/01/03 07:31:02;;;;;;;3.42;3.13;;;5.50;99.90;;;;;;5015015;28;20097;-60
2023/01/03 07:33:28;;;;;;;4.18;3.70;;;5.50;99.90;;;;;;5017002;28;20034;-59
2023/01/03 07:36:05;;;;;;;3.60;3.00;;;5.50;99.90;;;;;;5015966;28;20087;-59
2023/01/03 07:38:31;;;;;;;3.72;3.13;;;5.40;99.90;;;;;;5016700;28;20030;-59
2023/01/03 07:40:58;;;;;;;3.42;3.13;;;5.30;99.90;;;;;;5010525;28;20037;-61
2023/01/03 07:43:36;;;;;;;4.85;3.47;;;5.30;99.90;;;;;;5009550;28;20029;-59
2023/01/03 07:46:04;;;;;;;4.15;3.75;;;5.30;99.90;;;;;;5009364;28;20026;-62
2023/01/03 07:48:30;;;;;;;3.47;3.17;;;5.30;99.90;;;;;;5012309;28;20137;-60
2023/01/03 07:50:57;;;;;;;6.53;3.65;;;5.30;99.90;;;;;;5018894;28;20117;-60
2023/01/03 07:53:22;;;;;;;5.15;4.65;;;5.30;99.90;;;;;;5014649;28;20027;-59
2023/01/03 07:55:49;;;;;;;5.80;5.30;;;5.40;99.90;;;;;;5013685;28;20048;-59
2023/01/03 07:58:14;;;;;;;5.97;5.38;;;5.50;99.90;;;;;;5014343;28;20029;-60
2023/01/03 08:00:41;;;;;;;6.38;5.78;;;5.60;99.90;;;;;;5014594;28;20045;-60
2023/01/03 08:03:07;;;;;;;6.43;5.88;;;5.60;99.90;;;;;;5015583;28;20050;-59
2023/01/03 08:05:34;;;;;;;5.07;4.68;;;5.70;99.90;;;;;;5013066;28;20033;-59
2023/01/03 08:08:01;;;;;;;5.18;4.72;;;5.70;99.90;;;;;;5012714;28;20038;-59
2023/01/03 08:13:16;;;;;;;4.05;3.72;;;5.70;99.90;;;;;;5010507;28;20068;-60
2023/01/03 08:15:47;;;;;;;3.97;3.60;;;5.70;99.90;;;;;;5007695;28;20022;-60
2023/01/03 08:18:13;;;;;;;4.77;2.87;;;5.70;99.90;;;;;;5008377;28;20080;-61
2023/01/03 08:20:40;;;;;;;5.32;3.40;;;5.70;99.90;;;;;;5011542;28;20030;-60
2023/01/03 08:23:06;;;;;;;7.45;4.00;;;5.80;99.90;;;;;;5010569;28;20113;-61
2023/01/03 08:25:31;;;;;;;4.15;3.78;;;5.80;99.90;;;;;;5014821;28;20576;-59
2023/01/03 08:27:57;;;;;;;6.57;4.07;;;5.80;99.90;;;;;;5012599;28;20022;-61
2023/01/03 08:30:23;;;;;;;3.60;3.30;;;5.90;99.90;;;;;;5015630;28;20109;-62
2023/01/03 08:32:49;;;;;;;5.10;3.53;;;5.90;99.90;;;;;;5007383;28;20129;-59
2023/01/03 08:35:16;;;;;;;3.75;3.22;;;5.90;99.90;;;;;;5009990;28;20037;-62
2023/01/03 08:37:43;;;;;;;3.13;2.80;;;6.00;99.90;;;;;;5007967;28;20451;-61
2023/01/03 08:40:11;;;;;;;4.20;3.50;;;6.00;99.90;;;;;;5007781;28;20029;-61
2023/01/03 08:42:37;;;;;;;4.35;3.95;;;6.00;99.90;;;;;;5005911;28;20536;-59
2023/01/03 08:45:10;;;;;;;4.07;3.42;;;6.10;99.90;;;;;;5014660;28;20034;-61
2023/01/03 08:47:36;;;;;;;3.80;3.45;;;6.10;99.90;;;;;;5005617;28;20034;-60
2023/01/03 08:50:03;;;;;;;3.55;3.25;;;6.10;99.90;;;;;;5006348;28;20108;-61
2023/01/03 08:52:29;;;;;;;5.32;3.00;;;6.10;99.90;;;;;;5019807;28;20028;-61
2023/01/03 08:54:55;;;;;;;4.30;3.90;;;6.20;99.90;;;;;;5014581;28;20017;-60
2023/01/03 08:57:21;;;;;;;3.88;3.47;;;6.30;99.90;;;;;;5012350;28;20350;-61
2023/01/03 08:59:46;;;;;;;3.35;3.03;;;6.30;99.90;;;;;;5009690;28;20141;-62
2023/01/03 09:02:12;;;;;;;4.20;3.53;;;6.30;99.90;;;;;;5019693;28;20025;-62
2023/01/03 09:04:38;;;;;;;4.88;3.60;;;6.30;99.90;;;;;;5012771;28;20077;-59
2023/01/03 09:07:04;;;;;;;4.97;3.35;;;6.30;99.90;;;;;;5010013;28;20409;-61
2023/01/03 09:09:30;;;;;;;3.60;3.17;;;6.40;99.90;;;;;;5007645;28;20038;-61
2023/01/03 09:11:55;;;;;;;7.18;4.78;;;6.40;99.90;;;;;;5004116;28;20024;-60
2023/01/03 09:14:21;;;;;;;4.13;3.45;;;6.40;99.90;;;;;;5014421;28;20022;-59
2023/01/03 09:16:47;;;;;;;4.35;3.95;;;6.40;99.90;;;;;;5015883;28;20033;-59
2023/01/03 09:19:12;;;;;;;4.07;3.67;;;6.50;99.90;;;;;;5015445;28;20374;-60
2023/01/03 09:21:38;;;;;;;3.85;3.47;;;6.60;99.90;;;;;;4998662;28;20692;-60
2023/01/03 09:24:04;;;;;;;3.08;2.78;;;6.60;99.90;;;;;;5013712;28;20029;-60
2023/01/03 09:26:30;;;;;;;3.33;3.03;;;6.70;99.90;;;;;;5010445;28;20092;-61
2023/01/03 09:28:55;;;;;;;4.18;3.22;;;7.00;99.90;;;;;;5007167;28;20430;-60
2023/01/03 09:31:21;;;;;;;4.05;3.20;;;7.30;99.90;;;;;;5016472;28;20026;-59
2023/01/03 09:33:47;;;;;;;2.97;2.65;;;7.40;99.90;;;;;;5009174;28;20019;-61
2023/01/03 09:36:12;;;;;;;3.92;3.03;;;7.50;99.90;;;;;;5013970;28;20116;-59
2023/01/03 09:38:38;;;;;;;3.25;2.83;;;7.50;99.90;;;;;;5005445;28;20030;-60
2023/01/03 09:41:07;;;;;;;3.28;2.97;;;7.50;99.90;;;;;;5006269;28;20041;-62
2023/01/03 09:43:46;;;;;;;3.60;3.30;;;7.40;99.90;;;;;;5003805;28;20053;-60
2023/01/03 09:46:19;;;;;;;3.40;3.10;;;7.30;99.90;;;;;;5006910;28;20469;-60
2023/01/03 09:48:45;;;;;;;3.55;3.20;;;7.20;99.90;;;;;;5009137;28;20078;-59
2023/01/03 10:04:03;;;;;;;11.23;8.25;;;7.40;99.90;;;;;;5012978;28;20041;-61
2023/01/03 10:06:32;;;;;;;9.30;6.15;;;7.70;99.90;;;;;;5011410;28;20045;-62
2023/01/03 10:09:22;;;;;;;6.97;6.38;;;8.00;99.90;;;;;;5013861;28;20049;-60
2023/01/03 10:12:01;;;;;;;29.08;12.70;;;8.20;99.90;;;;;;5009674;28;20029;-61
2023/01/03 10:14:42;;;;;;;25.92;11.50;;;8.70;99.90;;;;;;5013771;28;20034;-60
2023/01/03 10:17:42;;;;;;;8.10;5.53;;;9.60;99.90;;;;;;5026889;28;20022;-60
2023/01/03 10:20:11;;;;;;;3.65;3.35;;;10.40;99.90;;;;;;4997772;28;20034;-61
2023/01/03 10:22:37;;;;;;;2.97;2.67;;;11.10;99.90;;;;;;5011663;28;20557;-60
2023/01/03 10:25:03;;;;;;;3.53;3.22;;;11.40;99.90;;;;;;5013014;28;20112;-63
2023/01/03 10:27:59;;;;;;;3.20;2.97;;;11.70;99.90;;;;;;5009622;28;20807;-60
2023/01/03 10:30:49;;;;;;;3.60;2.40;;;12.00;99.90;;;;;;5018854;28;20036;-60
2023/01/03 10:33:25;;;;;;;4.22;2.20;;;12.30;99.90;;;;;;5014595;28;20116;-63
2023/01/03 10:35:51;;;;;;;2.47;2.28;;;12.60;99.90;;;;;;5012861;28;20018;-61
2023/01/03 10:38:17;;;;;;;3.42;2.35;;;12.90;96.50;;;;;;5008060;28;20018;-59
2023/01/03 10:40:51;;;;;;;2.83;2.63;;;12.70;96.70;;;;;;5013562;28;20030;-63
2023/01/03 10:43:18;;;;;;;2.53;2.28;;;12.40;97.60;;;;;;5022250;28;20025;-61
2023/01/03 10:45:56;;;;;;;2.35;1.85;;;12.00;97.50;;;;;;5018824;28;20045;-60
2023/01/03 10:48:23;;;;;;;2.47;2.28;;;11.60;96.20;;;;;;5014684;28;20022;-59
2023/01/03 10:50:49;;;;;;;2.58;2.38;;;11.30;98.40;;;;;;5019044;28;20053;-61
2023/01/03 10:53:19;;;;;;;2.38;1.98;;;11.00;99.20;;;;;;5015239;28;20482;-60
2023/01/03 10:55:51;;;;;;;2.22;1.95;;;10.60;99.90;;;;;;5007492;28;20497;-62
2023/01/03 10:58:24;;;;;;;2.20;1.90;;;10.50;99.90;;;;;;5010713;28;20030;-61
2023/01/03 11:00:52;;;;;;;2.20;1.92;;;10.50;99.90;;;;;;5007833;28;20046;-59
2023/01/03 11:03:21;;;;;;;3.28;2.15;;;10.30;99.90;;;;;;5012441;28;20026;-61
2023/01/03 11:06:08;;;;;;;2.50;2.30;;;10.30;99.90;;;;;;5011122;28;20402;-62
2023/01/03 11:08:44;;;;;;;4.13;2.40;;;10.00;99.90;;;;;;5012352;28;20052;-59
2023/01/03 11:11:39;;;;;;;2.72;2.35;;;9.50;99.90;;;;;;5016180;28;20049;-61
2023/01/03 11:14:25;;;;;;;3.03;2.72;;;9.10;99.90;;;;;;5010258;28;20121;-60
2023/01/03 11:17:03;;;;;;;2.55;2.33;;;8.80;99.90;;;;;;5011829;28;20359;-61
2023/01/03 11:19:30;;;;;;;5.32;2.53;;;8.60;99.90;;;;;;5009107;28;20555;-61
2023/01/03 11:22:05;;;;;;;3.22;2.13;;;8.60;99.90;;;;;;5016463;28;20029;-59
2023/01/03 11:24:49;;;;;;;5.45;2.25;;;8.60;99.90;;;;;;5004086;28;20126;-59
2023/01/03 11:27:41;;;;;;;5.90;2.13;;;8.70;99.90;;;;;;5013628;28;20030;-59
2023/01/03 11:30:25;;;;;;;2.28;2.08;;;8.70;99.90;;;;;;5010162;28;20489;-59
2023/01/03 11:33:18;;;;;;;1.85;1.75;;;8.80;99.90;;;;;;5006339;28;20022;-60
2023/01/03 11:36:05;;;;;;;2.55;1.85;;;9.00;99.90;;;;;;5016993;28;20498;-60
2023/01/03 11:39:09;;;;;;;2.97;1.75;;;9.10;99.90;;;;;;5016884;28;20092;-59
2023/01/03 11:42:14;;;;;;;1.83;1.70;;;9.40;99.90;;;;;;5014605;28;20030;-61
2023/01/03 11:45:00;;;;;;;2.20;1.67;;;9.60;99.90;;;;;;5013730;28;20079;-62
2023/01/03 11:47:39;;;;;;;2.35;1.60;;;9.70;99.90;;;;;;5014094;28;20037;-60
2023/01/03 11:50:24;;;;;;;2.20;1.92;;;9.80;99.90;;;;;;5014066;28;20030;-59
2023/01/03 11:53:03;;;;;;;4.05;1.90;;;9.90;99.90;;;;;;5007981;28;20100;-59
2023/01/03 11:56:01;;;;;;;1.40;1.30;;;10.10;99.90;;;;;;5011600;28;20523;-60
2023/01/03 11:58:41;;;;;;;2.63;1.90;;;10.10;99.90;;;;;;5006027;28;20040;-61
2023/01/03 12:01:25;;;;;;;2.95;2.30;;;10.20;99.90;;;;;;5013939;28;20367;-61
2023/01/03 12:04:12;;;;;;;2.40;2.20;;;10.50;99.90;;;;;;5012526;28;20034;-60
2023/01/03 12:06:50;;;;;;;2.75;2.20;;;10.80;99.90;;;;;;5019047;28;20095;-60
2023/01/03 12:09:54;;;;;;;2.00;1.90;;;11.20;99.90;;;;;;5014961;28;20524;-60
2023/01/03 12:12:40;;;;;;;3.67;2.10;;;11.60;99.30;;;;;;5000833;28;20068;-62
2023/01/03 12:15:20;;;;;;;2.53;1.83;;;11.90;99.60;;;;;;5016827;28;20033;-60
2023/01/03 12:17:56;;;;;;;2.97;1.48;;;12.00;97.10;;;;;;5019026;28;20104;-61
2023/01/03 12:20:36;;;;;;;1.90;1.55;;;12.00;96.10;;;;;;5019089;28;20032;-59
2023/01/03 12:23:21;;;;;;;2.45;1.52;;;12.10;96.10;;;;;;5016228;28;20037;-60
2023/01/03 12:25:52;;;;;;;2.85;1.50;;;12.20;95.40;;;;;;5015474;28;20041;-62
2023/01/03 12:28:24;;;;;;;1.42;1.27;;;12.30;94.70;;;;;;5018063;28;20493;-59
2023/01/03 12:31:07;;;;;;;1.75;1.20;;;12.20;93.60;;;;;;5009557;28;20030;-60
2023/01/03 12:33:59;;;;;;;2.30;1.33;;;11.80;93.10;;;;;;5006946;28;20826;-59
2023/01/03 12:36:46;;;;;;;1.67;1.30;;;11.40;93.80;;;;;;4998780;28;20508;-59
2023/01/03 12:39:24;;;;;;;1.55;1.20;;;11.20;94.00;;;;;;5005695;28;20614;-59
2023/01/03 12:42:18;;;;;;;2.22;1.10;;;11.10;93.80;;;;;;5008193;28;20073;-59
2023/01/03 12:44:47;;;;;;;2.35;1.27;;;10.90;94.30;;;;;;5001857;28;20021;-60
2023/01/03 12:47:33;;;;;;;1.27;1.10;;;10.80;94.10;;;;;;5008345;28;20038;-61
2023/01/03 12:50:28;;;;;;;2.22;1.30;;;10.80;94.30;;;;;;5010824;28;20018;-60
2023/01/03 12:53:17;;;;;;;2.67;1.30;;;10.90;94.20;;;;;;5009805;28;20396;-61
2023/01/03 12:56:03;;;;;;;1.23;1.13;;;10.80;94.60;;;;;;5007962;28;20091;-61
2023/01/03 12:58:53;;;;;;;2.05;1.40;;;10.80;95.40;;;;;;5012987;28;20063;-61
2023/01/03 13:02:11;;;;;;;1.48;1.27;;;10.70;95.00;;;;;;5010994;28;20014;-60
2023/01/03 13:04:41;;;;;;;2.55;1.30;;;10.80;94.40;;;;;;4978656;28;20039;-60
2023/01/03 13:07:18;;;;;;;2.50;1.45;;;10.80;96.00;;;;;;5013189;28;20032;-59
2023/01/03 13:09:54;;;;;;;1.65;1.15;;;10.90;96.40;;;;;;5006068;28;20042;-60
2023/01/03 13:12:27;;;;;;;2.08;1.30;;;11.00;95.70;;;;;;5014131;28;20037;-62
2023/01/03 13:14:55;;;;;;;3.08;1.40;;;11.00;95.10;;;;;;5012308;28;20030;-61
2023/01/03 13:17:25;;;;;;;2.40;1.25;;;11.00;94.10;;;;;;5008083;28;20029;-60
2023/01/03 13:19:55;;;;;;;1.43;1.20;;;10.70;95.20;;;;;;5012969;28;20035;-58
2023/01/03 13:22:31;;;;;;;1.83;1.38;;;10.60;94.60;;;;;;5015221;28;20184;-59
2023/01/03 13:25:26;;;;;;;1.88;1.10;;;10.50;94.60;;;;;;5016358;28;20400;-59
2023/01/03 13:27:54;;;;;;;1.40;1.20;;;10.50;94.70;;;;;;5011423;28;20038;-59
2023/01/03 13:30:27;;;;;;;5.90;1.52;;;10.40;95.50;;;;;;5007296;28;20050;-60
2023/01/03 13:33:05;;;;;;;1.75;1.23;;;10.10;94.60;;;;;;5007593;28;20026;-60
2023/01/03 13:35:55;;;;;;;1.60;1.33;;;10.10;96.50;;;;;;5024660;28;20121;-59
2023/01/03 13:38:27;;;;;;;2.13;1.50;;;10.00;95.80;;;;;;5002264;28;20057;-62
2023/01/03 13:40:59;;;;;;;1.40;1.15;;;10.00;96.30;;;;;;5014390;28;20414;-61
2023/01/03 13:43:33;;;;;;;3.92;1.95;;;10.00;95.50;;;;;;5010717;28;20259;-60
2023/01/03 13:46:21;;;;;;;1.90;1.50;;;10.10;96.20;;;;;;5011331;28;20508;-60
2023/01/03 13:48:54;;;;;;;2.45;1.52;;;10.00;96.60;;;;;;4997188;28;20168;-60
2023/01/03 13:51:25;;;;;;;2.88;1.75;;;9.90;95.20;;;;;;5001513;28;20037;-60
2023/01/03 13:54:02;;;;;;;2.83;1.38;;;9.90;95.70;;;;;;5008327;28;20037;-59
2023/01/03 13:56:53;;;;;;;1.23;1.13;;;9.80;95.50;;;;;;5005533;28;20047;-60
2023/01/03 13:59:42;;;;;;;1.65;1.20;;;10.00;96.60;;;;;;5015909;28;20096;-59
2023/01/03 14:02:11;;;;;;;3.53;1.40;;;10.10;96.00;;;;;;5010456;28;20048;-61
2023/01/03 14:05:28;;;;;;;2.17;1.30;;;10.20;96.00;;;;;;5003398;28;20037;-61
2023/01/03 14:08:35;;;;;;;2.03;1.35;;;10.20;95.40;;;;;;4967888;28;20394;-62
2023/01/03 14:11:07;;;;;;;2.72;1.30;;;10.20;95.10;;;;;;4992244;28;20022;-62
2023/01/03 14:13:46;;;;;;;1.83;1.35;;;10.30;95.20;;;;;;5008271;28;20102;-61
2023/01/03 14:16:22;;;;;;;2.72;1.30;;;10.30;95.20;;;;;;5006830;28;20049;-59
2023/01/03 14:19:18;;;;;;;3.38;1.42;;;10.30;95.10;;;;;;5014157;28;20014;-60
2023/01/03 14:21:49;;;;;;;1.90;1.70;;;10.30;94.70;;;;;;5013420;28;20397;-61